Startpagina
METAR-TAF:

METAR-TAF

Vliegvelden :

Aéroport de Castres-Mazamet

Castres, Frankrijk

breedte: 43-33-25N, lengte: 2-17-21E, hoogte: 239 m

Actueel weer

Dit bericht is 40 minuten geleden gemaakt, om 20:00 UTC
Wind 1 kt uit het noordwesten
Temperatuur 8°C
Vochtigheid 81%
Druk 1033 hPa
Zicht 10 km of meer
geen wolken onder 1500 m en geen cumulonimbus

METAR: LFCK 232000Z AUTO 32001KT CAVOK 08/05 Q1033 TEMPO 0600 FG VV///

Tijdstip: 21:40 (20:40 UTC)

Verwachting

Dit bericht is 3 uur en het 40 minuten geleden gemaakt, om 17:00 UTC
Verwachting geldig van 23 om 18 UTC tot 24 om 03 UTC
Wind 3 kt uit variabele richting
Zicht 10 km of meer
geen wolken onder 1500 m en geen cumulonimbus
Wijzigt naar
van 23 om 19 UTC tot 23 om 21 UTC
Zicht: 3000 m
nevel
Kans 40% :
Tijdelijke
van 23 om 21 UTC tot 24 om 03 UTC
Zicht: 0600 m
mist

TAF: LFCK 231700Z 2318/2403 VRB03KT CAVOK BECMG 2319/2321 3000 BR NSC PROB40 TEMPO 2321/2403 0600 FG VV///

Waarnemingen en weersverwachtingen van meer dan 4000 vliegvelden (METAR en TAF).

De beschikbare stations zijn de gele en rode punten op de kaart.

Ga met uw muis naar het station om de naam te zien.

Klik dan om waarnemingen en weersverwachtingen te zien.

kaart wijzigen: klik op de groene knoppen met een zwart kruis om in te zoomen, op de groene knop met een streepje om uit te zoomen of op de groene pijlen voor aangrenzende kaarten.


METAR-TAF: